Time;durP1;ratioP1;P1;durP2;ratioP2;P2;SDS_P1;SDS_P2;PMS_P1;PMS_P2;Temp;Humidity;BMP_temperature;BMP_pressure;BME280_temperature;BME280_humidity;BME280_pressure;Samples;Min_cycle;Max_cycle;Signal;HPM_P1;HPM_P2
2021/08/07 00:02:35;;;;;;;;;;;16.90;79.50;;;20.08;64.12;100368.91;4415200;39;96677;-73
2021/08/07 00:05:39;;;;;;;;;;;16.80;79.50;;;20.10;63.53;100356.50;4406073;39;97661;-73
2021/08/07 00:08:43;;;;;;;;;;;16.80;79.50;;;20.11;63.77;100360.00;4404280;39;98668;-73
2021/08/07 00:11:49;;;;;;;;;;;16.90;79.50;;;20.05;63.88;100365.03;4414728;39;97543;-73
2021/08/07 00:14:52;;;;;;;;;;;16.80;79.40;;;20.04;64.25;100368.09;4414577;39;96641;-73
2021/08/07 00:17:56;;;;;;;;;;;16.80;79.50;;;19.97;64.28;100365.28;4415806;39;97985;-73
2021/08/07 00:21:00;;;;;;;;;;;16.80;79.40;;;19.96;64.15;100369.94;4414199;39;98580;-73
2021/08/07 00:24:07;;;;;;;;;;;16.80;79.50;;;19.94;64.86;100374.19;4415293;39;96924;-73
2021/08/07 00:27:12;;;;;;;;;;;16.80;79.50;;;19.96;64.55;100369.16;4413431;39;97547;-73
2021/08/07 00:30:16;;;;;;;;;;;16.80;79.50;;;20.00;64.58;100367.25;4416875;39;97495;-73
2021/08/07 00:33:24;;;;;;;;;;;16.80;79.50;;;19.96;64.44;100355.56;4404288;39;97681;-73
2021/08/07 00:36:28;;;;;;;;;;;16.80;79.50;;;19.94;64.47;100357.88;4407831;39;98708;-73
2021/08/07 00:39:39;;;;;;;;;;;16.80;79.50;;;19.88;64.61;100353.94;4405355;39;98608;-73
2021/08/07 00:42:46;;;;;;;;;;;16.80;79.50;;;19.89;64.65;100355.50;4389453;39;97452;-73
2021/08/07 00:46:05;;;;;;;;;;;16.80;79.50;;;19.88;65.03;100359.38;4414073;39;96585;-73
2021/08/07 00:49:12;;;;;;;;;;;16.80;79.60;;;19.90;64.22;100349.66;4409413;39;98560;-73
2021/08/07 00:52:19;;;;;;;;;;;16.80;79.60;;;19.95;64.64;100351.28;4407406;39;97074;-73
2021/08/07 00:55:26;;;;;;;;;;;16.80;79.60;;;19.97;64.27;100349.75;4394748;39;97711;-73
2021/08/07 00:58:33;;;;;;;;;;;16.80;79.60;;;19.94;64.11;100336.13;4398008;39;97117;-73
2021/08/07 01:01:45;;;;;;;;;;;16.80;79.60;;;19.94;64.44;100338.84;4406537;39;96911;-73
2021/08/07 01:05:04;;;;;;;;;;;16.80;79.60;;;19.97;64.31;100340.81;4419422;39;97402;-73
2021/08/07 01:08:17;;;;;;;;;;;16.80;79.60;;;20.00;64.39;100345.50;4393803;39;97624;-73
2021/08/07 01:11:34;;;;;;;;;;;16.80;79.60;;;20.03;64.08;100328.47;4406292;39;97724;-73
2021/08/07 01:14:43;;;;;;;;;;;16.80;79.70;;;20.10;64.23;100326.59;4405173;39;96802;-73
2021/08/07 01:17:55;;;;;;;;;;;16.80;79.60;;;20.09;64.19;100327.75;4417488;39;97793;-73
2021/08/07 01:21:04;;;;;;;;;;;16.80;79.60;;;20.12;63.89;100307.19;4408173;39;97584;-73
2021/08/07 01:24:21;;;;;;;;;;;16.80;79.60;;;20.16;63.32;100313.44;4418423;39;97491;-73
2021/08/07 01:27:32;;;;;;;;;;;16.80;79.60;;;20.11;64.66;100309.13;4409133;39;97479;-73
2021/08/07 01:30:55;;;;;;;;;;;16.80;79.60;;;20.16;64.02;100310.72;4414729;39;96661;-73
2021/08/07 01:34:03;;;;;;;;;;;16.80;79.50;;;20.19;64.40;100310.72;4415120;39;97949;-73
2021/08/07 01:37:22;;;;;;;;;;;16.80;79.50;;;20.15;64.11;100317.31;4414367;39;97881;-73
2021/08/07 01:40:39;;;;;;;;;;;16.90;79.60;;;20.12;64.50;100310.69;4408210;39;97560;-73
2021/08/07 01:43:53;;;;;;;;;;;16.80;79.50;;;20.18;63.91;100303.72;4414464;39;97080;-72
2021/08/07 01:47:07;;;;;;;;;;;16.80;79.60;;;20.23;63.34;100311.53;4419133;39;96832;-73
2021/08/07 01:50:20;;;;;;;;;;;16.80;79.60;;;20.24;64.35;100315.06;4414841;39;97486;-73
2021/08/07 01:53:28;;;;;;;;;;;16.90;79.70;;;20.20;64.05;100315.00;4400051;39;97583;-73
2021/08/07 01:56:45;;;;;;;;;;;16.90;79.70;;;20.22;63.46;100315.41;4405631;39;96735;-73
2021/08/07 01:59:53;;;;;;;;;;;16.90;79.70;;;20.14;63.89;100319.25;4420804;39;97558;-73
2021/08/07 02:02:58;;;;;;;;;;;16.80;79.60;;;20.13;64.38;100311.47;4417505;39;99068;-73
2021/08/07 02:06:07;;;;;;;;;;;16.80;79.60;;;20.12;63.84;100307.19;4401456;39;97187;-73
2021/08/07 02:09:18;;;;;;;;;;;16.80;79.60;;;20.14;64.02;100310.31;4405429;39;97912;-73
2021/08/07 02:12:30;;;;;;;;;;;16.80;79.70;;;20.11;63.91;100314.56;4416288;39;96806;-73
2021/08/07 02:15:45;;;;;;;;;;;16.80;79.70;;;20.19;63.93;100310.72;4417153;39;97568;-73
2021/08/07 02:18:56;;;;;;;;;;;16.70;79.70;;;19.98;64.66;100313.25;4414405;39;98590;-73
2021/08/07 02:22:07;;;;;;;;;;;16.80;79.70;;;19.97;64.49;100306.25;4414756;39;96692;-73
2021/08/07 02:25:15;;;;;;;;;;;16.70;79.70;;;19.91;64.72;100307.72;4408846;39;97674;-73
2021/08/07 02:28:32;;;;;;;;;;;16.70;79.70;;;19.86;64.22;100308.06;4403462;39;97931;-73
2021/08/07 02:31:43;;;;;;;;;;;16.70;79.80;;;19.81;65.07;100310.31;4407935;39;96625;-73
2021/08/07 02:34:48;;;;;;;;;;;16.70;79.80;;;19.74;64.77;100312.97;4421657;39;97458;-73
2021/08/07 02:38:03;;;;;;;;;;;16.60;79.80;;;19.77;65.11;100304.06;4413604;39;97548;-73
2021/08/07 02:41:10;;;;;;;;;;;16.60;79.80;;;19.83;64.13;100308.03;4417793;39;96896;-73
2021/08/07 02:44:19;;;;;;;;;;;16.60;79.90;;;19.84;64.06;100309.59;4415554;39;97525;-73
2021/08/07 02:47:28;;;;;;;;;;;16.60;80.00;;;19.79;64.36;100312.63;4414717;39;97472;-73
2021/08/07 02:50:36;;;;;;;;;;;16.60;80.00;;;19.77;64.50;100310.31;4405177;39;96646;-73
2021/08/07 02:53:43;;;;;;;;;;;16.50;79.90;;;19.79;64.45;100304.47;4414689;39;96468;-73
2021/08/07 02:56:48;;;;;;;;;;;16.60;80.00;;;19.79;64.53;100313.44;4413629;39;99005;-73
2021/08/07 02:59:52;;;;;;;;;;;16.50;80.00;;;19.79;64.89;100309.91;4413897;39;96937;-73
2021/08/07 03:02:57;;;;;;;;;;;16.50;80.00;;;19.80;64.62;100314.19;4408723;39;97169;-73
2021/08/07 03:06:05;;;;;;;;;;;16.50;80.00;;;19.79;64.82;100313.44;4406117;39;97876;-73
2021/08/07 03:09:11;;;;;;;;;;;16.50;80.00;;;19.76;64.22;100308.75;4415164;39;97835;-73
2021/08/07 03:12:20;;;;;;;;;;;16.50;80.00;;;19.82;64.11;100301.03;4416547;39;97597;-73
2021/08/07 03:15:25;;;;;;;;;;;16.50;80.00;;;19.72;64.29;100310.66;4413002;39;97385;-73
2021/08/07 03:18:32;;;;;;;;;;;16.50;80.00;;;19.77;64.88;100301.34;4401148;39;97449;-73
2021/08/07 03:21:36;;;;;;;;;;;16.50;80.10;;;19.81;64.21;100307.59;4392621;39;97791;-73
2021/08/07 03:24:42;;;;;;;;;;;16.50;80.00;;;19.67;64.89;100313.69;4417708;39;97196;-73
2021/08/07 03:27:46;;;;;;;;;;;16.50;80.00;;;19.66;64.61;100319.50;4400368;39;99613;-73
2021/08/07 03:30:53;;;;;;;;;;;16.50;80.10;;;19.62;64.93;100318.69;4419129;39;97549;-73
2021/08/07 03:34:00;;;;;;;;;;;16.50;80.00;;;19.60;64.13;100321.75;4398920;39;97205;-73
2021/08/07 03:37:07;;;;;;;;;;;16.50;80.10;;;19.60;64.99;100326.44;4413751;39;97775;-73
2021/08/07 03:40:15;;;;;;;;;;;16.50;80.10;;;19.59;65.38;100327.56;4398399;39;96734;-73
2021/08/07 03:43:22;;;;;;;;;;;16.50;80.20;;;19.56;65.05;100325.59;4412065;39;97748;-73
2021/08/07 03:46:26;;;;;;;;;;;16.40;80.10;;;19.53;64.75;100327.13;4409641;39;97583;-73
2021/08/07 03:49:32;;;;;;;;;;;16.40;80.10;;;19.51;64.77;100318.56;4412976;39;97411;-73
2021/08/07 03:52:37;;;;;;;;;;;16.40;80.10;;;19.53;64.43;100318.19;4412048;39;97613;-73
2021/08/07 03:55:41;;;;;;;;;;;16.40;80.20;;;19.49;65.20;100320.06;4409895;39;97620;-73
2021/08/07 03:58:45;;;;;;;;;;;16.40;80.10;;;19.44;65.22;100323.13;4413435;39;96642;-73
2021/08/07 04:01:51;;;;;;;;;;;16.30;80.10;;;19.41;64.82;100332.00;4404138;39;97565;-73
2021/08/07 04:05:03;;;;;;;;;;;16.30;80.20;;;19.40;64.92;100333.16;4407025;39;96811;-73
2021/08/07 04:08:09;;;;;;;;;;;16.30;80.20;;;19.48;64.74;100318.50;4415578;39;97688;-73
2021/08/07 04:11:17;;;;;;;;;;;16.30;80.30;;;19.58;63.94;100318.63;4412979;39;96718;-73
2021/08/07 04:14:30;;;;;;;;;;;16.20;80.30;;;19.50;64.39;100321.63;4413615;39;97422;-73
2021/08/07 04:17:36;;;;;;;;;;;16.20;80.30;;;19.56;64.52;100320.94;4399637;39;97263;-73
2021/08/07 04:20:42;;;;;;;;;;;16.20;80.30;;;19.60;63.87;100323.72;4415485;39;97479;-73
2021/08/07 04:23:46;;;;;;;;;;;16.30;80.30;;;19.64;63.77;100321.81;4400416;39;99074;-73
2021/08/07 04:26:50;;;;;;;;;;;16.30;80.20;;;19.68;64.09;100322.63;4407069;39;97760;-73
2021/08/07 04:29:56;;;;;;;;;;;16.30;80.30;;;19.69;64.14;100319.53;4417757;39;96607;-73
2021/08/07 04:33:00;;;;;;;;;;;16.30;80.30;;;19.77;63.77;100321.19;4412843;39;97529;-73
2021/08/07 04:36:11;;;;;;;;;;;16.30;80.20;;;19.76;63.56;100329.69;4410032;39;96737;-73
2021/08/07 04:39:17;;;;;;;;;;;16.30;80.20;;;19.77;64.06;100331.25;4400628;39;97010;-73
2021/08/07 04:42:22;;;;;;;;;;;16.40;80.20;;;19.79;64.00;100323.50;4405466;39;97514;-73
2021/08/07 04:45:26;;;;;;;;;;;16.40;80.20;;;19.81;63.98;100318.47;4414189;39;97537;-73
2021/08/07 04:48:30;;;;;;;;;;;16.40;80.10;;;19.81;64.30;100316.56;4397914;39;97258;-73
2021/08/07 04:51:49;;;;;;;;;;;16.50;80.20;;;19.81;64.50;100318.47;4414842;39;96604;-73
2021/08/07 04:54:53;;;;;;;;;;;16.50;80.20;;;19.83;63.83;100322.41;4406328;39;97567;-73
2021/08/07 04:57:57;;;;;;;;;;;16.50;80.10;;;19.88;63.87;100324.00;4416139;39;97294;-73
2021/08/07 05:01:05;;;;;;;;;;;16.50;80.10;;;19.89;64.20;100328.28;4415567;39;96824;-73
2021/08/07 05:04:12;;;;;;;;;;;16.50;80.00;;;19.98;63.31;100323.31;4407492;39;97913;-73
2021/08/07 05:07:19;;;;;;;;;;;16.60;80.00;;;20.13;63.92;100331.28;4407821;39;97412;-73
2021/08/07 05:10:23;;;;;;;;;;;16.60;79.90;;;20.07;63.63;100332.78;4418020;39;97784;-73
2021/08/07 05:13:27;;;;;;;;;;;16.70;79.80;;;20.06;63.28;100333.16;4396353;39;97488;-73
2021/08/07 05:16:31;;;;;;;;;;;16.70;79.80;;;20.11;63.63;100327.34;4414238;39;96734;-73
2021/08/07 05:19:35;;;;;;;;;;;16.70;79.80;;;20.12;64.13;100326.22;4412709;39;97292;-73
2021/08/07 05:22:40;;;;;;;;;;;16.80;79.80;;;20.19;63.44;100327.06;4398172;39;97718;-73
2021/08/07 05:25:43;;;;;;;;;;;16.80;79.80;;;20.18;63.30;100320.06;4403681;39;97673;-73
2021/08/07 05:28:48;;;;;;;;;;;16.80;79.70;;;20.23;63.68;100321.66;4399526;39;98449;-73
2021/08/07 05:31:51;;;;;;;;;;;16.80;79.70;;;20.40;63.35;100321.00;4411449;39;96874;-73
2021/08/07 05:34:55;;;;;;;;;;;16.90;79.70;;;20.64;62.03;100308.38;4403984;39;97827;-73
2021/08/07 05:38:03;;;;;;;;;;;17.00;79.50;;;21.10;61.36;100314.13;4410432;39;97335;-73
2021/08/07 05:41:08;;;;;;;;;;;17.20;79.20;;;21.58;60.91;100313.56;4414818;39;98520;-73
2021/08/07 05:44:15;;;;;;;;;;;17.60;78.50;;;22.74;58.31;100298.09;4418561;39;97567;-73
2021/08/07 05:47:19;;;;;;;;;;;18.40;78.10;;;27.48;48.34;100300.28;4418047;39;98486;-74
2021/08/07 05:50:23;;;;;;;;;;;20.50;74.50;;;27.07;51.08;100307.38;4417518;39;98518;-74
2021/08/07 05:53:29;;;;;;;;;;;21.50;73.00;;;28.99;48.47;100292.69;4409141;39;96866;-74
2021/08/07 05:56:34;;;;;;;;;;;22.80;72.70;;;32.70;42.84;100303.34;4410492;39;97215;-73
2021/08/07 05:59:38;;;;;;;;;;;25.00;69.40;;;32.75;44.98;100292.41;4397057;39;97780;-72
2021/08/07 06:02:41;;;;;;;;;;;26.40;68.60;;;35.99;40.57;100282.84;4398047;39;97520;-73
2021/08/07 06:05:46;;;;;;;;;;;28.40;66.40;;;38.55;38.28;100279.56;4423782;39;96516;-73
2021/08/07 06:08:51;;;;;;;;;;;30.50;64.90;;;40.04;37.92;100276.47;4415252;39;96692;-73
2021/08/07 06:11:55;;;;;;;;;;;32.30;63.70;;;40.07;39.49;100271.88;4415029;39;97169;-73
2021/08/07 06:15:00;;;;;;;;;;;33.20;62.20;;;35.28;49.44;100274.09;4408607;39;97606;-73
2021/08/07 06:18:05;;;;;;;;;;;31.70;65.40;;;34.31;51.71;100280.75;4417427;39;96664;-73
2021/08/07 06:21:13;;;;;;;;;;;30.70;68.00;;;36.76;46.92;100281.13;4379809;39;96659;-73
2021/08/07 06:24:18;;;;;;;;;;;30.80;69.00;;;39.97;41.96;100265.00;4406524;39;97513;-73
2021/08/07 06:27:22;;;;;;;;;;;32.50;67.10;;;41.88;39.64;100270.78;4406496;39;97624;-74
2021/08/07 06:30:27;;;;;;;;;;;34.20;64.90;;;43.10;38.96;100263.94;4399927;39;97186;-74
2021/08/07 06:33:36;;;;;;;;;;;35.50;63.30;;;44.12;38.52;100257.53;4414431;39;96647;-74
2021/08/07 06:36:40;;;;;;;;;;;36.60;62.30;;;44.87;38.12;100255.72;4407179;39;99526;-74
2021/08/07 06:39:46;;;;;;;;;;;37.50;62.00;;;45.93;37.55;100270.34;4394633;39;98796;-74
2021/08/07 06:42:50;;;;;;;;;;;38.40;61.70;;;46.30;37.99;100245.06;4421360;39;96780;-74
2021/08/07 06:46:12;;;;;;;;;;;39.10;61.20;;;46.10;39.43;100254.38;4414340;39;96871;-74
2021/08/07 06:49:17;;;;;;;;;;;39.30;61.40;;;47.20;37.57;100242.53;4407940;39;97191;-74
2021/08/07 06:52:21;;;;;;;;;;;39.90;60.80;;;47.70;37.15;100239.53;4406067;39;98345;-74
2021/08/07 06:55:26;;;;;;;;;;;40.30;60.00;;;48.43;36.54;100238.44;4424141;39;96708;-74
2021/08/07 06:58:31;;;;;;;;;;;40.80;60.00;;;48.90;35.66;100239.88;4414275;39;97285;-74
2021/08/07 07:01:35;;;;;;;;;;;41.40;58.70;;;46.86;38.51;100239.25;4406562;39;97018;-74
2021/08/07 07:04:39;;;;;;;;;;;41.00;58.70;;;47.81;36.61;100233.44;4404417;39;97570;-74
2021/08/07 07:07:43;;;;;;;;;;;40.90;58.60;;;48.47;35.49;100216.78;4399371;39;97101;-74
2021/08/07 07:10:49;;;;;;;;;;;41.00;58.50;;;48.93;35.23;100215.94;4398440;39;97294;-74
2021/08/07 07:13:55;;;;;;;;;;;41.10;58.90;;;49.72;34.80;100223.53;4413953;39;97275;-74
2021/08/07 07:16:59;;;;;;;;;;;41.50;59.00;;;49.05;35.34;100224.81;4408135;39;97718;-74
2021/08/07 07:20:09;;;;;;;;;;;41.40;58.50;;;49.83;34.47;100235.16;4417058;39;97484;-74
2021/08/07 07:23:14;;;;;;;;;;;41.60;58.50;;;49.01;35.52;100236.63;4400437;39;98011;-74
2021/08/07 07:26:21;;;;;;;;;;;41.40;58.90;;;47.19;39.17;100235.34;4415841;39;96648;-74
2021/08/07 07:29:28;;;;;;;;;;;41.00;59.70;;;46.29;40.76;100235.06;4418221;39;97479;-74
2021/08/07 07:32:33;;;;;;;;;;;40.40;60.50;;;47.96;37.05;100238.34;4408576;39;96983;-74
2021/08/07 07:35:37;;;;;;;;;;;40.30;59.90;;;48.30;36.17;100235.78;4414592;39;96806;-74
2021/08/07 07:38:41;;;;;;;;;;;40.20;59.90;;;50.07;32.87;100234.38;4395800;39;98231;-73
2021/08/07 07:41:46;;;;;;;;;;;40.60;59.60;;;51.00;32.31;100229.13;4414489;39;97620;-72
2021/08/07 07:44:51;;;;;;;;;;;40.90;59.60;;;51.80;31.43;100235.47;4416797;39;98871;-75
2021/08/07 07:47:54;;;;;;;;;;;41.40;59.50;;;52.08;31.50;100234.75;4420699;39;96856;-74
2021/08/07 07:50:59;;;;;;;;;;;41.70;59.30;;;52.22;30.70;100240.13;4410911;39;97787;-73
2021/08/07 07:54:05;;;;;;;;;;;42.00;59.10;;;52.40;31.22;100232.94;4416544;39;96654;-75
2021/08/07 07:57:10;;;;;;;;;;;42.10;59.10;;;52.20;30.78;100230.66;4414161;39;96957;-74
2021/08/07 08:00:16;;;;;;;;;;;42.00;59.00;;;52.36;30.55;100229.00;4418620;39;98429;-74
2021/08/07 08:03:23;;;;;;;;;;;41.90;58.90;;;52.39;30.38;100230.66;4415109;39;97304;-74
2021/08/07 08:06:27;;;;;;;;;;;41.80;59.40;;;52.49;30.67;100231.41;4418067;39;97628;-76
2021/08/07 08:09:32;;;;;;;;;;;41.80;59.90;;;52.56;30.39;100227.63;4416793;39;97512;-75
2021/08/07 08:12:38;;;;;;;;;;;41.80;60.00;;;52.52;30.49;100230.94;4418090;39;97232;-74
2021/08/07 08:16:05;;;;;;;;;;;41.70;60.40;;;52.44;30.58;100230.34;4415952;39;97450;-77
2021/08/07 08:19:11;;;;;;;;;;;41.60;60.10;;;52.39;31.33;100231.41;4408704;39;97638;-76
2021/08/07 08:22:15;;;;;;;;;;;41.50;60.80;;;52.58;31.21;100225.66;4413578;39;97944;-76
2021/08/07 08:25:19;;;;;;;;;;;41.40;61.40;;;52.36;31.13;100224.06;4425540;39;97859;-79
2021/08/07 08:28:25;;;;;;;;;;;41.40;61.40;;;51.92;31.51;100219.19;4399002;39;98559;-77
2021/08/07 08:31:29;;;;;;;;;;;41.20;60.90;;;51.53;31.63;100218.41;4399628;39;97503;-77
2021/08/07 08:34:33;;;;;;;;;;;40.90;60.90;;;51.08;31.87;100218.41;4410561;39;96897;-76
2021/08/07 08:37:37;;;;;;;;;;;40.50;61.20;;;50.97;31.82;100213.97;4416690;39;96776;-76
2021/08/07 08:40:41;;;;;;;;;;;40.30;62.10;;;50.86;32.34;100213.75;4421484;39;96745;-77
2021/08/07 08:43:47;;;;;;;;;;;40.10;62.10;;;50.31;32.49;100210.69;4405789;39;97580;-77
2021/08/07 08:46:53;;;;;;;;;;;39.80;61.90;;;49.88;33.05;100199.97;4417426;39;96594;-78
2021/08/07 08:49:57;;;;;;;;;;;39.50;62.50;;;49.74;33.37;100201.63;4414802;39;97035;-76
2021/08/07 08:53:04;;;;;;;;;;;39.20;62.90;;;49.01;34.99;100202.47;4414271;39;97561;-77
2021/08/07 08:56:09;;;;;;;;;;;39.00;63.30;;;47.89;36.45;100193.66;4413328;39;96684;-76
2021/08/07 08:59:14;;;;;;;;;;;38.50;63.80;;;48.01;35.05;100186.22;4421957;39;97245;-77
2021/08/07 09:02:18;;;;;;;;;;;38.20;65.00;;;48.28;34.94;100178.72;4413856;39;96687;-77
2021/08/07 09:05:23;;;;;;;;;;;38.10;64.60;;;48.32;35.88;100179.88;4400337;39;97225;-76
2021/08/07 09:08:27;;;;;;;;;;;38.00;65.10;;;47.98;36.18;100176.78;4417369;39;98341;-76
2021/08/07 09:11:33;;;;;;;;;;;37.90;65.30;;;46.97;37.79;100173.63;4416739;39;96689;-74
2021/08/07 09:14:59;;;;;;;;;;;37.70;65.10;;;46.23;37.67;100174.91;4417329;39;96634;-73
2021/08/07 09:18:22;;;;;;;;;;;37.20;65.20;;;45.88;38.15;100161.50;4417381;39;98639;-73
2021/08/07 09:21:42;;;;;;;;;;;36.80;65.70;;;45.92;38.37;100161.88;4412971;39;97506;-74
2021/08/07 09:25:03;;;;;;;;;;;36.60;66.50;;;45.85;38.55;100162.63;4413744;39;97607;-74
2021/08/07 09:28:08;;;;;;;;;;;36.50;66.80;;;45.93;38.87;100157.00;4416145;39;97827;-74
2021/08/07 09:31:13;;;;;;;;;;;36.40;67.50;;;45.97;38.74;100151.72;4414058;39;97621;-74
2021/08/07 09:34:20;;;;;;;;;;;36.40;67.90;;;45.94;38.97;100159.28;4413290;39;96663;-74
2021/08/07 09:37:33;;;;;;;;;;;36.40;67.90;;;45.64;39.78;100144.94;4415859;39;96905;-74
2021/08/07 09:40:42;;;;;;;;;;;36.30;68.10;;;45.42;39.87;100136.25;4411812;39;96810;-73
2021/08/07 09:43:50;;;;;;;;;;;36.20;68.00;;;44.73;40.81;100141.84;4421511;39;97503;-76
2021/08/07 09:47:06;;;;;;;;;;;36.10;68.50;;;41.82;47.19;100132.91;4416228;39;96637;-75
2021/08/07 09:50:23;;;;;;;;;;;35.80;69.10;;;41.19;48.27;100131.00;4418993;39;98512;-76
2021/08/07 09:53:30;;;;;;;;;;;35.20;69.30;;;41.25;46.60;100137.38;4418836;39;97676;-74
2021/08/07 09:56:46;;;;;;;;;;;34.80;69.00;;;40.91;47.86;100134.06;4424874;39;98260;-72
2021/08/07 09:59:51;;;;;;;;;;;34.40;70.10;;;40.41;48.82;100119.56;4419870;39;97777;-72
2021/08/07 10:03:18;;;;;;;;;;;34.20;70.40;;;38.15;53.42;100121.09;4422267;39;98502;-73
2021/08/07 10:06:23;;;;;;;;;;;33.90;70.40;;;37.09;55.13;100127.81;4409319;39;96598;-74
2021/08/07 10:09:35;;;;;;;;;;;33.40;70.10;;;36.78;55.69;100125.00;4418868;39;97059;-72
2021/08/07 10:12:46;;;;;;;;;;;32.90;71.10;;;37.02;55.70;100122.69;4420180;39;98444;-73
2021/08/07 10:15:58;;;;;;;;;;;32.60;72.20;;;36.85;56.24;100119.75;4421334;39;97727;-73
2021/08/07 10:19:08;;;;;;;;;;;32.40;72.80;;;37.05;56.02;100121.69;4409477;39;97874;-73
2021/08/07 10:22:15;;;;;;;;;;;32.40;72.80;;;36.98;56.26;100111.72;4420666;39;98167;-75
2021/08/07 10:25:24;;;;;;;;;;;32.50;72.80;;;36.68;57.04;100118.06;4418393;39;96637;-73
2021/08/07 10:28:31;;;;;;;;;;;32.40;72.80;;;36.30;57.54;100107.22;4419278;39;98199;-73
2021/08/07 10:31:37;;;;;;;;;;;32.40;72.80;;;36.10;58.03;100110.81;4418520;39;96762;-73
2021/08/07 10:34:50;;;;;;;;;;;32.20;72.90;;;35.94;57.89;100107.81;4413543;39;98853;-74
2021/08/07 10:37:56;;;;;;;;;;;32.10;72.80;;;35.09;58.53;100102.75;4407995;39;98100;-73
2021/08/07 10:41:00;;;;;;;;;;;31.70;72.30;;;34.09;59.54;100107.03;4416702;39;98183;-73
2021/08/07 10:44:07;;;;;;;;;;;31.10;72.30;;;33.56;59.97;100100.56;4417657;39;96687;-73
2021/08/07 10:47:11;;;;;;;;;;;30.50;72.60;;;33.86;58.94;100102.25;4417951;39;99525;-73
2021/08/07 10:50:36;;;;;;;;;;;30.20;73.30;;;33.50;59.55;100098.91;4407987;39;98073;-74
2021/08/07 10:53:44;;;;;;;;;;;30.10;73.30;;;33.25;59.22;100096.56;4416614;39;96554;-72
2021/08/07 10:56:47;;;;;;;;;;;29.80;73.00;;;33.49;58.92;100086.25;4416479;39;97287;-73
2021/08/07 10:59:51;;;;;;;;;;;29.70;73.00;;;33.31;58.86;100081.56;4414739;39;97257;-72
2021/08/07 11:03:14;;;;;;;;;;;29.50;73.00;;;33.22;59.14;100089.19;4418000;39;98689;-75
2021/08/07 11:06:21;;;;;;;;;;;29.40;73.20;;;33.99;57.68;100088.09;4403612;39;100146;-75
2021/08/07 11:09:29;;;;;;;;;;;29.50;73.40;;;34.26;57.28;100083.88;4404089;39;98537;-75
2021/08/07 11:12:34;;;;;;;;;;;29.70;73.40;;;33.64;57.55;100082.28;4416725;39;96544;-75
2021/08/07 11:15:38;;;;;;;;;;;29.70;72.60;;;33.98;57.20;100081.75;4399640;39;98328;-73
2021/08/07 11:18:42;;;;;;;;;;;29.60;72.80;;;33.78;57.47;100073.28;4400237;39;96680;-73
2021/08/07 11:21:53;;;;;;;;;;;29.60;72.50;;;33.49;57.70;100073.16;4416998;39;96953;-75
2021/08/07 11:24:57;;;;;;;;;;;29.50;72.80;;;34.09;56.98;100068.09;4416757;39;97238;-72
2021/08/07 11:28:06;;;;;;;;;;;29.60;73.10;;;34.55;56.17;100075.53;4415410;39;98723;-74
2021/08/07 11:31:27;;;;;;;;;;;29.80;73.70;;;34.65;56.34;100060.28;4411952;39;98826;-75
2021/08/07 11:34:31;;;;;;;;;;;30.00;72.90;;;34.05;57.14;100066.72;4417009;39;96772;-72
2021/08/07 11:38:15;;;;;;;;;;;29.90;72.40;;;32.93;58.83;100056.44;4417050;39;98787;-72
2021/08/07 11:41:31;;;;;;;;;;;29.60;72.30;;;32.05;60.20;100058.88;4416798;39;98185;-73
2021/08/07 11:44:36;;;;;;;;;;;29.00;72.80;;;31.16;62.08;100057.50;4413316;39;97897;-72
2021/08/07 11:47:45;;;;;;;;;;;28.40;73.30;;;30.85;62.08;100047.69;4418446;39;97008;-71
2021/08/07 11:50:52;;;;;;;;;;;28.00;73.90;;;30.68;61.81;100045.59;4413203;39;96720;-72
2021/08/07 11:53:57;;;;;;;;;;;27.60;74.10;;;31.28;61.07;100039.22;4415550;39;98480;-72
2021/08/07 11:57:01;;;;;;;;;;;27.50;74.90;;;32.04;59.58;100032.38;4414150;39;96800;-73
2021/08/07 12:00:27;;;;;;;;;;;27.80;75.00;;;32.29;59.34;100042.41;4412887;39;99825;-74
2021/08/07 12:03:40;;;;;;;;;;;28.00;74.80;;;32.02;59.50;100034.09;4414460;39;97910;-73
2021/08/07 12:06:49;;;;;;;;;;;28.10;73.90;;;32.62;58.26;100024.59;4414692;39;97056;-74
2021/08/07 12:10:07;;;;;;;;;;;28.20;73.80;;;32.87;57.39;100024.22;4414146;39;98522;-73
2021/08/07 12:13:18;;;;;;;;;;;28.50;73.50;;;33.03;57.61;100021.81;4420718;39;96754;-72
2021/08/07 12:16:25;;;;;;;;;;;28.70;73.50;;;33.02;57.70;100019.50;4406162;39;97733;-73
2021/08/07 12:19:30;;;;;;;;;;;28.80;73.10;;;32.33;58.83;100026.38;4408371;39;96667;-73
2021/08/07 12:22:33;;;;;;;;;;;28.70;72.90;;;31.96;59.17;100017.31;4408804;39;96546;-75
2021/08/07 12:25:42;;;;;;;;;;;28.50;72.90;;;31.71;59.24;100012.06;4398471;39;96930;-76
2021/08/07 12:28:49;;;;;;;;;;;28.30;73.10;;;31.14;60.32;100023.97;4407002;39;97261;-72
2021/08/07 12:31:55;;;;;;;;;;;27.90;73.00;;;30.73;60.66;100018.88;4411006;39;97633;-74
2021/08/07 12:35:03;;;;;;;;;;;27.60;72.90;;;30.07;61.49;100017.84;4413917;39;96643;-74
2021/08/07 12:38:15;;;;;;;;;;;27.20;72.90;;;29.47;62.48;100013.66;4396963;39;98503;-74
2021/08/07 12:41:23;;;;;;;;;;;26.70;73.50;;;-139.67;100.00;66712.31;4465887;39;95144;-73
2021/08/07 12:44:30;;;;;;;;;;;26.30;73.80;;;-139.67;100.00;66712.31;4495632;39;20293;-74
2021/08/07 12:47:38;;;;;;;;;;;26.00;74.30;;;-139.67;100.00;66712.31;4495923;39;20307;-72
2021/08/07 12:51:01;;;;;;;;;;;25.90;74.30;;;-139.67;100.00;66712.31;4493573;39;19959;-73
2021/08/07 12:54:18;;;;;;;;;;;25.90;74.10;;;-139.67;100.00;66712.31;4487555;39;20313;-73
2021/08/07 12:57:27;;;;;;;;;;;25.80;73.80;;;-139.67;100.00;66712.31;4493944;39;20283;-73
2021/08/07 13:00:31;;;;;;;;;;;25.70;73.80;;;-139.67;100.00;66712.31;4498325;39;19954;-72
2021/08/07 13:03:55;;;;;;;;;;;25.60;73.80;;;-139.67;100.00;66712.31;4503246;39;19947;-71
2021/08/07 13:07:01;;;;;;;;;;;25.20;73.60;;;-139.67;100.00;66712.31;4494675;39;19951;-75
2021/08/07 13:10:21;;;;;;;;;;;24.70;73.60;;;-139.67;100.00;66712.31;4486094;39;19931;-76
2021/08/07 13:13:42;;;;;;;;;;;24.10;74.20;;;-139.67;100.00;66712.31;4479700;39;20394;-75
2021/08/07 13:16:47;;;;;;;;;;;23.50;74.90;;;-139.67;100.00;66712.31;4473718;39;20762;-75
2021/08/07 13:19:53;;;;;;;;;;;23.00;75.20;;;-139.67;100.00;66712.31;4489628;39;20258;-75
2021/08/07 13:23:03;;;;;;;;;;;22.70;76.20;;;-139.67;100.00;66712.31;4477716;39;19980;-74
2021/08/07 13:26:10;;;;;;;;;;;22.60;76.50;;;-139.67;100.00;66712.31;4493214;39;19963;-74
2021/08/07 13:29:18;;;;;;;;;;;22.80;76.50;;;-139.67;100.00;66712.31;4495559;39;20085;-75
2021/08/07 13:32:25;;;;;;;;;;;23.30;75.70;;;-139.67;100.00;66712.31;4478065;39;20282;-74
2021/08/07 13:35:30;;;;;;;;;;;23.80;74.80;;;-139.67;100.00;66712.31;4492723;39;20008;-76
2021/08/07 13:38:35;;;;;;;;;;;24.20;74.00;;;-139.67;100.00;66712.31;4491908;39;19944;-74
2021/08/07 13:41:43;;;;;;;;;;;24.40;73.90;;;-139.67;100.00;66712.31;4496675;39;19960;-74
2021/08/07 13:44:49;;;;;;;;;;;24.60;73.60;;;-139.67;100.00;66712.31;4495590;39;19948;-75
2021/08/07 13:47:53;;;;;;;;;;;24.90;73.30;;;-139.67;100.00;66712.31;4492235;39;19952;-74
2021/08/07 13:50:57;;;;;;;;;;;25.20;73.20;;;-139.67;100.00;66712.31;4496170;39;19939;-73
2021/08/07 13:54:00;;;;;;;;;;;25.40;72.30;;;-139.67;100.00;66712.31;4494984;39;20570;-74
2021/08/07 13:57:08;;;;;;;;;;;25.50;72.50;;;-139.67;100.00;66712.31;4493825;39;20063;-72
2021/08/07 14:00:14;;;;;;;;;;;25.50;72.40;;;-139.67;100.00;66712.31;4493549;39;19948;-73
2021/08/07 14:03:19;;;;;;;;;;;25.70;72.30;;;-139.67;100.00;66712.31;4496873;39;20297;-73
2021/08/07 14:06:23;;;;;;;;;;;25.80;72.60;;;-139.67;100.00;66712.31;4495802;39;20704;-73
2021/08/07 14:09:27;;;;;;;;;;;25.90;72.40;;;-139.67;100.00;66712.31;4489583;39;19940;-73
2021/08/07 14:12:30;;;;;;;;;;;26.00;72.80;;;-139.67;100.00;66712.31;4493484;39;19943;-73